sensor_id;sensor_type;location;lat;lon;timestamp;temperature;humidity
35497;DHT22;21609;49.298;6.844;2024-02-28T00:01:21;18.10;51.10
35497;DHT22;21609;49.298;6.844;2024-02-28T00:03:46;18.10;51.10
35497;DHT22;21609;49.298;6.844;2024-02-28T00:06:12;18.10;51.10
35497;DHT22;21609;49.298;6.844;2024-02-28T00:08:38;18.00;51.10
35497;DHT22;21609;49.298;6.844;2024-02-28T00:11:03;18.00;51.10
35497;DHT22;21609;49.298;6.844;2024-02-28T00:13:29;18.00;51.10
35497;DHT22;21609;49.298;6.844;2024-02-28T00:15:54;18.00;51.10
35497;DHT22;21609;49.298;6.844;2024-02-28T00:18:19;18.00;51.20
35497;DHT22;21609;49.298;6.844;2024-02-28T00:20:45;18.00;51.20
35497;DHT22;21609;49.298;6.844;2024-02-28T00:23:11;18.00;51.10
35497;DHT22;21609;49.298;6.844;2024-02-28T00:25:36;18.00;51.20
35497;DHT22;21609;49.298;6.844;2024-02-28T00:28:02;18.00;51.20
35497;DHT22;21609;49.298;6.844;2024-02-28T00:30:27;18.00;51.20
35497;DHT22;21609;49.298;6.844;2024-02-28T00:32:54;17.90;51.20
35497;DHT22;21609;49.298;6.844;2024-02-28T00:35:20;17.90;51.20
35497;DHT22;21609;49.298;6.844;2024-02-28T00:37:45;17.90;51.20
35497;DHT22;21609;49.298;6.844;2024-02-28T00:40:11;17.90;51.20
35497;DHT22;21609;49.298;6.844;2024-02-28T00:42:37;17.90;51.20
35497;DHT22;21609;49.298;6.844;2024-02-28T00:45:03;17.90;51.20
35497;DHT22;21609;49.298;6.844;2024-02-28T00:47:29;17.90;51.20
35497;DHT22;21609;49.298;6.844;2024-02-28T00:49:54;17.90;51.20
35497;DHT22;21609;49.298;6.844;2024-02-28T00:52:20;17.90;51.20
35497;DHT22;21609;49.298;6.844;2024-02-28T00:54:45;17.90;51.30
35497;DHT22;21609;49.298;6.844;2024-02-28T00:57:11;17.80;51.20
35497;DHT22;21609;49.298;6.844;2024-02-28T00:59:36;17.80;51.30
35497;DHT22;21609;49.298;6.844;2024-02-28T01:02:02;17.80;51.20
35497;DHT22;21609;49.298;6.844;2024-02-28T01:04:28;17.80;51.20
35497;DHT22;21609;49.298;6.844;2024-02-28T01:06:54;17.80;51.30
35497;DHT22;21609;49.298;6.844;2024-02-28T01:09:21;17.80;51.30
35497;DHT22;21609;49.298;6.844;2024-02-28T01:11:46;17.80;51.30
35497;DHT22;21609;49.298;6.844;2024-02-28T01:14:12;17.80;51.90
35497;DHT22;21609;49.298;6.844;2024-02-28T01:16:37;17.70;51.30
35497;DHT22;21609;49.298;6.844;2024-02-28T01:19:03;17.80;51.30
35497;DHT22;21609;49.298;6.844;2024-02-28T01:21:28;17.70;51.30
35497;DHT22;21609;49.298;6.844;2024-02-28T01:23:54;17.70;51.30
35497;DHT22;21609;49.298;6.844;2024-02-28T01:26:19;17.70;51.30
35497;DHT22;21609;49.298;6.844;2024-02-28T01:28:47;17.70;51.40
35497;DHT22;21609;49.298;6.844;2024-02-28T01:31:14;17.70;51.30
35497;DHT22;21609;49.298;6.844;2024-02-28T01:33:39;17.70;51.40
35497;DHT22;21609;49.298;6.844;2024-02-28T01:36:08;17.70;51.40
35497;DHT22;21609;49.298;6.844;2024-02-28T01:38:34;17.70;51.40
35497;DHT22;21609;49.298;6.844;2024-02-28T01:40:59;17.60;51.30
35497;DHT22;21609;49.298;6.844;2024-02-28T01:43:25;17.60;51.30
35497;DHT22;21609;49.298;6.844;2024-02-28T01:45:51;17.60;51.30
35497;DHT22;21609;49.298;6.844;2024-02-28T01:48:16;17.60;51.30
35497;DHT22;21609;49.298;6.844;2024-02-28T01:50:42;17.60;51.40
35497;DHT22;21609;49.298;6.844;2024-02-28T01:53:09;17.60;51.40
35497;DHT22;21609;49.298;6.844;2024-02-28T01:55:35;17.60;51.40
35497;DHT22;21609;49.298;6.844;2024-02-28T01:58:02;17.60;51.40
35497;DHT22;21609;49.298;6.844;2024-02-28T02:00:32;17.60;51.40
35497;DHT22;21609;49.298;6.844;2024-02-28T02:03:02;17.50;51.40
35497;DHT22;21609;49.298;6.844;2024-02-28T02:05:28;17.60;51.40
35497;DHT22;21609;49.298;6.844;2024-02-28T02:07:54;17.50;51.40
35497;DHT22;21609;49.298;6.844;2024-02-28T02:10:20;17.50;51.40
35497;DHT22;21609;49.298;6.844;2024-02-28T02:12:46;17.50;51.40
35497;DHT22;21609;49.298;6.844;2024-02-28T02:15:12;17.50;51.50
35497;DHT22;21609;49.298;6.844;2024-02-28T02:17:37;17.50;51.40
35497;DHT22;21609;49.298;6.844;2024-02-28T02:20:03;17.50;51.40
35497;DHT22;21609;49.298;6.844;2024-02-28T02:22:36;17.50;51.40
35497;DHT22;21609;49.298;6.844;2024-02-28T02:25:03;17.50;51.50
35497;DHT22;21609;49.298;6.844;2024-02-28T02:27:29;17.40;51.40
35497;DHT22;21609;49.298;6.844;2024-02-28T02:29:55;17.40;51.40
35497;DHT22;21609;49.298;6.844;2024-02-28T02:32:20;17.40;51.50
35497;DHT22;21609;49.298;6.844;2024-02-28T02:34:46;17.40;51.50
35497;DHT22;21609;49.298;6.844;2024-02-28T02:37:11;17.40;51.40
35497;DHT22;21609;49.298;6.844;2024-02-28T02:39:37;17.40;51.50
35497;DHT22;21609;49.298;6.844;2024-02-28T02:42:02;17.40;51.50
35497;DHT22;21609;49.298;6.844;2024-02-28T02:44:28;17.40;51.50
35497;DHT22;21609;49.298;6.844;2024-02-28T02:46:54;17.40;51.50
35497;DHT22;21609;49.298;6.844;2024-02-28T02:49:19;17.40;51.50
35497;DHT22;21609;49.298;6.844;2024-02-28T02:51:45;17.40;51.50
35497;DHT22;21609;49.298;6.844;2024-02-28T02:54:10;17.30;51.50
35497;DHT22;21609;49.298;6.844;2024-02-28T02:56:36;17.30;51.50
35497;DHT22;21609;49.298;6.844;2024-02-28T02:59:02;17.40;51.50
35497;DHT22;21609;49.298;6.844;2024-02-28T03:01:28;17.30;51.50
35497;DHT22;21609;49.298;6.844;2024-02-28T03:03:53;17.30;51.50
35497;DHT22;21609;49.298;6.844;2024-02-28T03:06:19;17.30;51.50
35497;DHT22;21609;49.298;6.844;2024-02-28T03:08:45;17.30;51.60
35497;DHT22;21609;49.298;6.844;2024-02-28T03:11:10;17.30;51.50
35497;DHT22;21609;49.298;6.844;2024-02-28T03:13:36;17.30;51.50
35497;DHT22;21609;49.298;6.844;2024-02-28T03:16:05;17.30;51.60
35497;DHT22;21609;49.298;6.844;2024-02-28T03:18:31;17.30;51.60
35497;DHT22;21609;49.298;6.844;2024-02-28T03:20:56;17.30;52.10
35497;DHT22;21609;49.298;6.844;2024-02-28T03:23:22;17.20;51.60
35497;DHT22;21609;49.298;6.844;2024-02-28T03:25:48;17.20;51.50
35497;DHT22;21609;49.298;6.844;2024-02-28T03:28:13;17.20;51.60
35497;DHT22;21609;49.298;6.844;2024-02-28T03:30:39;17.20;51.60
35497;DHT22;21609;49.298;6.844;2024-02-28T03:33:04;17.20;51.60
35497;DHT22;21609;49.298;6.844;2024-02-28T03:35:30;17.20;51.50
35497;DHT22;21609;49.298;6.844;2024-02-28T03:37:55;17.20;51.60
35497;DHT22;21609;49.298;6.844;2024-02-28T03:40:21;17.20;51.60
35497;DHT22;21609;49.298;6.844;2024-02-28T03:42:46;17.20;51.60
35497;DHT22;21609;49.298;6.844;2024-02-28T03:45:12;17.20;51.60
35497;DHT22;21609;49.298;6.844;2024-02-28T03:47:38;17.10;51.60
35497;DHT22;21609;49.298;6.844;2024-02-28T03:50:03;17.10;52.10
35497;DHT22;21609;49.298;6.844;2024-02-28T03:52:29;17.10;51.60
35497;DHT22;21609;49.298;6.844;2024-02-28T03:54:56;17.10;51.60
35497;DHT22;21609;49.298;6.844;2024-02-28T03:57:22;17.10;51.60
35497;DHT22;21609;49.298;6.844;2024-02-28T03:59:48;17.10;51.60
35497;DHT22;21609;49.298;6.844;2024-02-28T04:02:13;17.10;51.60
35497;DHT22;21609;49.298;6.844;2024-02-28T04:04:39;17.10;51.70
35497;DHT22;21609;49.298;6.844;2024-02-28T04:07:05;17.10;51.70
35497;DHT22;21609;49.298;6.844;2024-02-28T04:09:30;17.10;51.60
35497;DHT22;21609;49.298;6.844;2024-02-28T04:11:56;17.00;51.60
35497;DHT22;21609;49.298;6.844;2024-02-28T04:14:21;17.00;51.60
35497;DHT22;21609;49.298;6.844;2024-02-28T04:16:47;17.00;51.60
35497;DHT22;21609;49.298;6.844;2024-02-28T04:19:15;17.00;51.70
35497;DHT22;21609;49.298;6.844;2024-02-28T04:21:41;17.00;51.60
35497;DHT22;21609;49.298;6.844;2024-02-28T04:24:07;17.00;51.60
35497;DHT22;21609;49.298;6.844;2024-02-28T04:26:35;17.00;51.60
35497;DHT22;21609;49.298;6.844;2024-02-28T04:29:01;17.00;51.60
35497;DHT22;21609;49.298;6.844;2024-02-28T04:31:29;17.00;51.60
35497;DHT22;21609;49.298;6.844;2024-02-28T04:33:54;16.90;51.60
35497;DHT22;21609;49.298;6.844;2024-02-28T04:36:20;17.00;51.70
35497;DHT22;21609;49.298;6.844;2024-02-28T04:38:45;16.90;51.60
35497;DHT22;21609;49.298;6.844;2024-02-28T04:41:11;16.90;51.60
35497;DHT22;21609;49.298;6.844;2024-02-28T04:43:36;16.90;51.60
35497;DHT22;21609;49.298;6.844;2024-02-28T04:46:02;16.90;51.60
35497;DHT22;21609;49.298;6.844;2024-02-28T04:48:28;16.90;51.70
35497;DHT22;21609;49.298;6.844;2024-02-28T04:50:54;16.90;51.70
35497;DHT22;21609;49.298;6.844;2024-02-28T04:53:19;16.90;51.70
35497;DHT22;21609;49.298;6.844;2024-02-28T04:55:45;16.90;51.70
35497;DHT22;21609;49.298;6.844;2024-02-28T04:58:11;16.90;51.70
35497;DHT22;21609;49.298;6.844;2024-02-28T05:00:36;16.90;51.70
35497;DHT22;21609;49.298;6.844;2024-02-28T05:03:02;16.90;51.70
35497;DHT22;21609;49.298;6.844;2024-02-28T05:05:27;16.90;51.70
35497;DHT22;21609;49.298;6.844;2024-02-28T05:07:53;16.90;51.70
35497;DHT22;21609;49.298;6.844;2024-02-28T05:10:19;16.90;51.70
35497;DHT22;21609;49.298;6.844;2024-02-28T05:12:44;16.80;51.70
35497;DHT22;21609;49.298;6.844;2024-02-28T05:15:10;16.80;51.70
35497;DHT22;21609;49.298;6.844;2024-02-28T05:17:35;16.80;51.70
35497;DHT22;21609;49.298;6.844;2024-02-28T05:20:01;16.80;51.70
35497;DHT22;21609;49.298;6.844;2024-02-28T05:22:27;16.80;51.70
35497;DHT22;21609;49.298;6.844;2024-02-28T05:24:52;16.80;51.70
35497;DHT22;21609;49.298;6.844;2024-02-28T05:27:18;16.80;51.70
35497;DHT22;21609;49.298;6.844;2024-02-28T05:29:45;16.80;51.70
35497;DHT22;21609;49.298;6.844;2024-02-28T05:32:10;16.80;51.80
35497;DHT22;21609;49.298;6.844;2024-02-28T05:34:36;16.80;51.90
35497;DHT22;21609;49.298;6.844;2024-02-28T05:37:02;16.70;51.70
35497;DHT22;21609;49.298;6.844;2024-02-28T05:39:28;16.70;51.80
35497;DHT22;21609;49.298;6.844;2024-02-28T05:41:56;16.70;51.80
35497;DHT22;21609;49.298;6.844;2024-02-28T05:44:23;16.70;51.80
35497;DHT22;21609;49.298;6.844;2024-02-28T05:46:49;16.70;51.80
35497;DHT22;21609;49.298;6.844;2024-02-28T05:49:15;16.70;51.80
35497;DHT22;21609;49.298;6.844;2024-02-28T05:51:40;16.70;51.80
35497;DHT22;21609;49.298;6.844;2024-02-28T05:54:06;16.70;51.80
35497;DHT22;21609;49.298;6.844;2024-02-28T05:56:32;16.60;51.70
35497;DHT22;21609;49.298;6.844;2024-02-28T05:58:57;16.70;51.80
35497;DHT22;21609;49.298;6.844;2024-02-28T06:01:23;16.70;51.80
35497;DHT22;21609;49.298;6.844;2024-02-28T06:03:48;16.70;51.80
35497;DHT22;21609;49.298;6.844;2024-02-28T06:06:14;16.60;51.80
35497;DHT22;21609;49.298;6.844;2024-02-28T06:08:41;16.60;51.80
35497;DHT22;21609;49.298;6.844;2024-02-28T06:11:07;16.60;51.80
35497;DHT22;21609;49.298;6.844;2024-02-28T06:13:33;16.60;51.80
35497;DHT22;21609;49.298;6.844;2024-02-28T06:15:58;16.60;51.80
35497;DHT22;21609;49.298;6.844;2024-02-28T06:18:25;16.60;51.80
35497;DHT22;21609;49.298;6.844;2024-02-28T06:20:55;16.60;51.80
35497;DHT22;21609;49.298;6.844;2024-02-28T06:23:22;16.60;51.90
35497;DHT22;21609;49.298;6.844;2024-02-28T06:25:48;16.60;51.80
35497;DHT22;21609;49.298;6.844;2024-02-28T06:28:14;16.60;51.90
35497;DHT22;21609;49.298;6.844;2024-02-28T06:30:39;16.50;51.80
35497;DHT22;21609;49.298;6.844;2024-02-28T06:33:05;16.50;51.80
35497;DHT22;21609;49.298;6.844;2024-02-28T06:35:31;16.50;51.80
35497;DHT22;21609;49.298;6.844;2024-02-28T06:37:57;16.50;51.90
35497;DHT22;21609;49.298;6.844;2024-02-28T06:40:22;16.50;51.80
35497;DHT22;21609;49.298;6.844;2024-02-28T06:42:48;16.50;51.80
35497;DHT22;21609;49.298;6.844;2024-02-28T06:45:13;16.50;51.90
35497;DHT22;21609;49.298;6.844;2024-02-28T06:47:39;16.50;52.00
35497;DHT22;21609;49.298;6.844;2024-02-28T06:50:05;16.50;51.90
35497;DHT22;21609;49.298;6.844;2024-02-28T06:52:31;16.50;51.90
35497;DHT22;21609;49.298;6.844;2024-02-28T06:54:57;16.50;51.90
35497;DHT22;21609;49.298;6.844;2024-02-28T06:57:23;16.50;51.90
35497;DHT22;21609;49.298;6.844;2024-02-28T06:59:48;16.40;51.90
35497;DHT22;21609;49.298;6.844;2024-02-28T07:02:14;16.50;51.90
35497;DHT22;21609;49.298;6.844;2024-02-28T07:04:41;16.40;51.90
35497;DHT22;21609;49.298;6.844;2024-02-28T07:07:07;16.40;52.50
35497;DHT22;21609;49.298;6.844;2024-02-28T07:09:33;16.40;51.90
35497;DHT22;21609;49.298;6.844;2024-02-28T07:11:59;16.40;51.90
35497;DHT22;21609;49.298;6.844;2024-02-28T07:14:26;16.40;52.00
35497;DHT22;21609;49.298;6.844;2024-02-28T07:16:51;16.40;51.90
35497;DHT22;21609;49.298;6.844;2024-02-28T07:19:17;16.40;51.90
35497;DHT22;21609;49.298;6.844;2024-02-28T07:21:43;16.40;51.90
35497;DHT22;21609;49.298;6.844;2024-02-28T07:24:09;16.40;52.00
35497;DHT22;21609;49.298;6.844;2024-02-28T07:26:34;16.40;52.00
35497;DHT22;21609;49.298;6.844;2024-02-28T07:29:00;16.40;51.80
35497;DHT22;21609;49.298;6.844;2024-02-28T07:31:26;16.60;51.90
35497;DHT22;21609;49.298;6.844;2024-02-28T07:33:52;16.60;51.50
35497;DHT22;21609;49.298;6.844;2024-02-28T07:36:18;16.70;51.40
35497;DHT22;21609;49.298;6.844;2024-02-28T07:38:44;16.90;51.20
35497;DHT22;21609;49.298;6.844;2024-02-28T07:41:10;17.10;51.00
35497;DHT22;21609;49.298;6.844;2024-02-28T07:43:35;17.40;50.80
35497;DHT22;21609;49.298;6.844;2024-02-28T07:46:10;17.50;50.40
35497;DHT22;21609;49.298;6.844;2024-02-28T07:48:37;17.70;50.30
35497;DHT22;21609;49.298;6.844;2024-02-28T07:51:06;17.80;50.00
35497;DHT22;21609;49.298;6.844;2024-02-28T07:53:32;17.90;50.00
35497;DHT22;21609;49.298;6.844;2024-02-28T07:55:57;18.00;50.00
35497;DHT22;21609;49.298;6.844;2024-02-28T07:58:23;18.00;49.90
35497;DHT22;21609;49.298;6.844;2024-02-28T08:00:50;18.00;50.00
35497;DHT22;21609;49.298;6.844;2024-02-28T08:03:15;18.00;50.30
35497;DHT22;21609;49.298;6.844;2024-02-28T08:05:41;17.90;50.50
35497;DHT22;21609;49.298;6.844;2024-02-28T08:08:09;17.90;50.60
35497;DHT22;21609;49.298;6.844;2024-02-28T08:10:34;17.90;50.70
35497;DHT22;21609;49.298;6.844;2024-02-28T08:13:01;17.90;50.80
35497;DHT22;21609;49.298;6.844;2024-02-28T08:15:27;17.90;50.90
35497;DHT22;21609;49.298;6.844;2024-02-28T08:17:53;18.00;50.90
35497;DHT22;21609;49.298;6.844;2024-02-28T08:20:19;18.00;50.90
35497;DHT22;21609;49.298;6.844;2024-02-28T08:22:45;18.00;50.90
35497;DHT22;21609;49.298;6.844;2024-02-28T08:25:11;18.00;50.90
35497;DHT22;21609;49.298;6.844;2024-02-28T08:27:38;18.10;50.70
35497;DHT22;21609;49.298;6.844;2024-02-28T08:30:05;18.10;50.70
35497;DHT22;21609;49.298;6.844;2024-02-28T08:32:32;18.10;50.70
35497;DHT22;21609;49.298;6.844;2024-02-28T08:34:57;18.20;50.70
35497;DHT22;21609;49.298;6.844;2024-02-28T08:37:23;18.20;50.70
35497;DHT22;21609;49.298;6.844;2024-02-28T08:39:50;18.30;51.20
35497;DHT22;21609;49.298;6.844;2024-02-28T08:42:15;18.30;50.70
35497;DHT22;21609;49.298;6.844;2024-02-28T08:44:41;18.30;50.70
35497;DHT22;21609;49.298;6.844;2024-02-28T08:47:06;18.30;50.60
35497;DHT22;21609;49.298;6.844;2024-02-28T08:49:38;18.30;50.60
35497;DHT22;21609;49.298;6.844;2024-02-28T08:52:04;18.30;50.60
35497;DHT22;21609;49.298;6.844;2024-02-28T08:54:30;18.30;50.70
35497;DHT22;21609;49.298;6.844;2024-02-28T08:56:56;18.30;51.30
35497;DHT22;21609;49.298;6.844;2024-02-28T08:59:21;18.30;50.70
35497;DHT22;21609;49.298;6.844;2024-02-28T09:01:48;18.40;50.70
35497;DHT22;21609;49.298;6.844;2024-02-28T09:04:13;18.40;50.60
35497;DHT22;21609;49.298;6.844;2024-02-28T09:06:39;18.40;50.70
35497;DHT22;21609;49.298;6.844;2024-02-28T09:09:04;18.50;50.70
35497;DHT22;21609;49.298;6.844;2024-02-28T09:11:30;18.50;50.60
35497;DHT22;21609;49.298;6.844;2024-02-28T09:13:55;18.50;50.50
35497;DHT22;21609;49.298;6.844;2024-02-28T09:16:21;18.50;50.50
35497;DHT22;21609;49.298;6.844;2024-02-28T09:18:46;18.50;50.50
35497;DHT22;21609;49.298;6.844;2024-02-28T09:21:12;18.60;50.50
35497;DHT22;21609;49.298;6.844;2024-02-28T09:23:37;18.60;50.50
35497;DHT22;21609;49.298;6.844;2024-02-28T09:26:06;18.60;50.50
35497;DHT22;21609;49.298;6.844;2024-02-28T09:28:33;18.60;51.00
35497;DHT22;21609;49.298;6.844;2024-02-28T09:30:58;18.70;50.40
35497;DHT22;21609;49.298;6.844;2024-02-28T09:33:24;18.70;50.40
35497;DHT22;21609;49.298;6.844;2024-02-28T09:35:50;18.70;50.40
35497;DHT22;21609;49.298;6.844;2024-02-28T09:38:15;18.70;50.40
35497;DHT22;21609;49.298;6.844;2024-02-28T09:40:41;18.70;50.40
35497;DHT22;21609;49.298;6.844;2024-02-28T09:43:15;18.70;50.50
35497;DHT22;21609;49.298;6.844;2024-02-28T09:45:41;18.70;50.50
35497;DHT22;21609;49.298;6.844;2024-02-28T09:48:07;18.70;50.40
35497;DHT22;21609;49.298;6.844;2024-02-28T09:50:35;18.70;50.40
35497;DHT22;21609;49.298;6.844;2024-02-28T09:53:00;18.80;50.50
35497;DHT22;21609;49.298;6.844;2024-02-28T09:55:26;18.80;50.40
35497;DHT22;21609;49.298;6.844;2024-02-28T09:57:52;18.80;50.50
35497;DHT22;21609;49.298;6.844;2024-02-28T10:00:21;18.80;50.50
35497;DHT22;21609;49.298;6.844;2024-02-28T10:02:47;18.80;50.50
35497;DHT22;21609;49.298;6.844;2024-02-28T10:05:17;18.80;50.50
35497;DHT22;21609;49.298;6.844;2024-02-28T10:07:47;18.80;50.40
35497;DHT22;21609;49.298;6.844;2024-02-28T10:10:12;18.80;50.40
35497;DHT22;21609;49.298;6.844;2024-02-28T10:12:41;18.80;50.40
35497;DHT22;21609;49.298;6.844;2024-02-28T10:15:09;18.80;50.40
35497;DHT22;21609;49.298;6.844;2024-02-28T10:17:35;18.80;50.40
35497;DHT22;21609;49.298;6.844;2024-02-28T10:20:01;18.80;50.40
35497;DHT22;21609;49.298;6.844;2024-02-28T10:22:36;18.80;50.30
35497;DHT22;21609;49.298;6.844;2024-02-28T10:25:02;18.90;50.20
35497;DHT22;21609;49.298;6.844;2024-02-28T10:27:32;18.90;50.30
35497;DHT22;21609;49.298;6.844;2024-02-28T10:29:57;18.80;50.20
35497;DHT22;21609;49.298;6.844;2024-02-28T10:32:23;18.80;50.40
35497;DHT22;21609;49.298;6.844;2024-02-28T10:34:48;18.90;50.40
35497;DHT22;21609;49.298;6.844;2024-02-28T10:37:14;18.90;50.40
35497;DHT22;21609;49.298;6.844;2024-02-28T10:39:41;18.90;50.30
35497;DHT22;21609;49.298;6.844;2024-02-28T10:42:09;18.90;50.30
35497;DHT22;21609;49.298;6.844;2024-02-28T10:44:36;18.90;50.30
35497;DHT22;21609;49.298;6.844;2024-02-28T10:47:03;18.90;50.30
35497;DHT22;21609;49.298;6.844;2024-02-28T10:49:29;18.90;50.40
35497;DHT22;21609;49.298;6.844;2024-02-28T10:51:56;18.90;50.40
35497;DHT22;21609;49.298;6.844;2024-02-28T10:54:24;18.90;50.40
35497;DHT22;21609;49.298;6.844;2024-02-28T10:56:51;19.00;50.40
35497;DHT22;21609;49.298;6.844;2024-02-28T10:59:17;18.90;50.40
35497;DHT22;21609;49.298;6.844;2024-02-28T11:01:44;18.90;50.40
35497;DHT22;21609;49.298;6.844;2024-02-28T11:04:15;18.90;50.40
35497;DHT22;21609;49.298;6.844;2024-02-28T11:06:53;19.00;50.30
35497;DHT22;21609;49.298;6.844;2024-02-28T11:09:23;19.00;50.10
35497;DHT22;21609;49.298;6.844;2024-02-28T11:11:52;19.00;50.20
35497;DHT22;21609;49.298;6.844;2024-02-28T11:14:18;19.00;50.20
35497;DHT22;21609;49.298;6.844;2024-02-28T11:16:48;19.00;50.30
35497;DHT22;21609;49.298;6.844;2024-02-28T11:19:22;19.00;50.40
35497;DHT22;21609;49.298;6.844;2024-02-28T11:21:54;19.10;50.30
35497;DHT22;21609;49.298;6.844;2024-02-28T11:24:29;19.00;50.30
35497;DHT22;21609;49.298;6.844;2024-02-28T11:26:56;19.10;50.50
35497;DHT22;21609;49.298;6.844;2024-02-28T11:29:26;19.10;50.40
35497;DHT22;21609;49.298;6.844;2024-02-28T11:31:53;19.20;50.30
35497;DHT22;21609;49.298;6.844;2024-02-28T11:34:19;19.20;50.50
35497;DHT22;21609;49.298;6.844;2024-02-28T11:36:47;19.20;50.50
35497;DHT22;21609;49.298;6.844;2024-02-28T11:39:13;19.20;50.60
35497;DHT22;21609;49.298;6.844;2024-02-28T11:41:39;19.20;50.70
35497;DHT22;21609;49.298;6.844;2024-02-28T11:44:05;19.20;50.60
35497;DHT22;21609;49.298;6.844;2024-02-28T11:46:30;19.20;50.60
35497;DHT22;21609;49.298;6.844;2024-02-28T11:48:56;19.10;50.70
35497;DHT22;21609;49.298;6.844;2024-02-28T11:51:22;19.10;50.60
35497;DHT22;21609;49.298;6.844;2024-02-28T11:53:48;19.10;50.70
35497;DHT22;21609;49.298;6.844;2024-02-28T11:56:13;19.10;50.70
35497;DHT22;21609;49.298;6.844;2024-02-28T11:58:57;19.10;50.60
35497;DHT22;21609;49.298;6.844;2024-02-28T12:01:34;19.20;50.50
35497;DHT22;21609;49.298;6.844;2024-02-28T12:04:04;19.20;50.60
35497;DHT22;21609;49.298;6.844;2024-02-28T12:06:31;19.20;50.50
35497;DHT22;21609;49.298;6.844;2024-02-28T12:08:57;19.20;50.60
35497;DHT22;21609;49.298;6.844;2024-02-28T12:11:24;19.20;50.30
35497;DHT22;21609;49.298;6.844;2024-02-28T12:13:53;19.30;50.40
35497;DHT22;21609;49.298;6.844;2024-02-28T12:16:22;19.20;50.50
35497;DHT22;21609;49.298;6.844;2024-02-28T12:18:48;19.20;50.30
35497;DHT22;21609;49.298;6.844;2024-02-28T12:21:13;19.20;50.30
35497;DHT22;21609;49.298;6.844;2024-02-28T12:23:39;19.30;50.20
35497;DHT22;21609;49.298;6.844;2024-02-28T12:26:05;19.30;50.20
35497;DHT22;21609;49.298;6.844;2024-02-28T12:28:30;19.30;50.10
35497;DHT22;21609;49.298;6.844;2024-02-28T12:30:56;19.30;50.10
35497;DHT22;21609;49.298;6.844;2024-02-28T12:33:21;19.30;50.00
35497;DHT22;21609;49.298;6.844;2024-02-28T12:35:48;19.30;50.00
35497;DHT22;21609;49.298;6.844;2024-02-28T12:38:13;19.30;49.90
35497;DHT22;21609;49.298;6.844;2024-02-28T12:40:40;19.40;50.00
35497;DHT22;21609;49.298;6.844;2024-02-28T12:43:07;19.40;49.90
35497;DHT22;21609;49.298;6.844;2024-02-28T12:45:33;19.40;49.90
35497;DHT22;21609;49.298;6.844;2024-02-28T12:47:59;19.40;49.80
35497;DHT22;21609;49.298;6.844;2024-02-28T12:50:26;19.40;49.80
35497;DHT22;21609;49.298;6.844;2024-02-28T12:52:52;19.40;49.80
35497;DHT22;21609;49.298;6.844;2024-02-28T12:55:19;19.40;49.80
35497;DHT22;21609;49.298;6.844;2024-02-28T12:57:46;19.40;49.80
35497;DHT22;21609;49.298;6.844;2024-02-28T13:00:12;19.40;49.80
35497;DHT22;21609;49.298;6.844;2024-02-28T13:02:38;19.40;49.80
35497;DHT22;21609;49.298;6.844;2024-02-28T13:05:04;19.40;49.70
35497;DHT22;21609;49.298;6.844;2024-02-28T13:07:30;19.40;49.90
35497;DHT22;21609;49.298;6.844;2024-02-28T13:09:56;19.40;49.80
35497;DHT22;21609;49.298;6.844;2024-02-28T13:12:21;19.50;49.90
35497;DHT22;21609;49.298;6.844;2024-02-28T13:14:47;19.50;49.60
35497;DHT22;21609;49.298;6.844;2024-02-28T13:17:13;19.40;49.90
35497;DHT22;21609;49.298;6.844;2024-02-28T13:19:39;19.50;49.90
35497;DHT22;21609;49.298;6.844;2024-02-28T13:22:05;19.50;49.80
35497;DHT22;21609;49.298;6.844;2024-02-28T13:24:30;19.50;50.00
35497;DHT22;21609;49.298;6.844;2024-02-28T13:26:56;19.60;49.80
35497;DHT22;21609;49.298;6.844;2024-02-28T13:29:21;19.60;49.80
35497;DHT22;21609;49.298;6.844;2024-02-28T13:31:47;19.60;49.70
35497;DHT22;21609;49.298;6.844;2024-02-28T13:34:13;19.70;49.80
35497;DHT22;21609;49.298;6.844;2024-02-28T13:36:38;19.60;49.60
35497;DHT22;21609;49.298;6.844;2024-02-28T13:39:08;19.70;49.70
35497;DHT22;21609;49.298;6.844;2024-02-28T13:41:34;19.70;49.60
35497;DHT22;21609;49.298;6.844;2024-02-28T13:44:00;19.70;49.60
35497;DHT22;21609;49.298;6.844;2024-02-28T13:46:25;19.80;49.60
35497;DHT22;21609;49.298;6.844;2024-02-28T13:48:51;19.80;49.60
35497;DHT22;21609;49.298;6.844;2024-02-28T13:51:16;19.90;49.60
35497;DHT22;21609;49.298;6.844;2024-02-28T13:53:42;20.00;49.50
35497;DHT22;21609;49.298;6.844;2024-02-28T13:56:07;20.00;49.40
35497;DHT22;21609;49.298;6.844;2024-02-28T13:58:33;20.10;49.50
35497;DHT22;21609;49.298;6.844;2024-02-28T14:00:58;20.10;49.50
35497;DHT22;21609;49.298;6.844;2024-02-28T14:03:24;20.10;49.40
35497;DHT22;21609;49.298;6.844;2024-02-28T14:05:51;20.20;49.40
35497;DHT22;21609;49.298;6.844;2024-02-28T14:08:17;20.20;49.40
35497;DHT22;21609;49.298;6.844;2024-02-28T14:10:43;20.20;49.40
35497;DHT22;21609;49.298;6.844;2024-02-28T14:13:08;20.30;49.40
35497;DHT22;21609;49.298;6.844;2024-02-28T14:15:37;20.20;49.20
35497;DHT22;21609;49.298;6.844;2024-02-28T14:18:02;20.20;49.50
35497;DHT22;21609;49.298;6.844;2024-02-28T14:20:28;20.20;49.80
35497;DHT22;21609;49.298;6.844;2024-02-28T14:22:54;20.20;49.90
35497;DHT22;21609;49.298;6.844;2024-02-28T14:25:21;20.20;50.00
35497;DHT22;21609;49.298;6.844;2024-02-28T14:27:47;20.20;50.10
35497;DHT22;21609;49.298;6.844;2024-02-28T14:30:14;20.20;50.00
35497;DHT22;21609;49.298;6.844;2024-02-28T14:32:42;20.20;50.10
35497;DHT22;21609;49.298;6.844;2024-02-28T14:35:09;20.20;50.00
35497;DHT22;21609;49.298;6.844;2024-02-28T14:37:36;20.20;49.90
35497;DHT22;21609;49.298;6.844;2024-02-28T14:40:04;20.30;49.90
35497;DHT22;21609;49.298;6.844;2024-02-28T14:42:35;20.30;50.00
35497;DHT22;21609;49.298;6.844;2024-02-28T14:45:01;20.40;49.90
35497;DHT22;21609;49.298;6.844;2024-02-28T14:47:26;20.40;49.90
35497;DHT22;21609;49.298;6.844;2024-02-28T14:49:52;20.40;49.70
35497;DHT22;21609;49.298;6.844;2024-02-28T14:52:17;20.40;49.70
35497;DHT22;21609;49.298;6.844;2024-02-28T14:54:43;20.50;49.60
35497;DHT22;21609;49.298;6.844;2024-02-28T14:57:10;20.50;49.80
35497;DHT22;21609;49.298;6.844;2024-02-28T14:59:35;20.50;49.70
35497;DHT22;21609;49.298;6.844;2024-02-28T15:02:01;20.50;49.40
35497;DHT22;21609;49.298;6.844;2024-02-28T15:04:26;20.50;49.60
35497;DHT22;21609;49.298;6.844;2024-02-28T15:06:52;20.50;49.40
35497;DHT22;21609;49.298;6.844;2024-02-28T15:09:18;20.50;49.30
35497;DHT22;21609;49.298;6.844;2024-02-28T15:11:47;20.50;49.10
35497;DHT22;21609;49.298;6.844;2024-02-28T15:14:13;20.50;49.30
35497;DHT22;21609;49.298;6.844;2024-02-28T15:16:38;20.50;49.10
35497;DHT22;21609;49.298;6.844;2024-02-28T15:19:04;20.50;49.00
35497;DHT22;21609;49.298;6.844;2024-02-28T15:21:29;20.50;49.10
35497;DHT22;21609;49.298;6.844;2024-02-28T15:23:55;20.50;49.10